Thursday, February 22, 2018, 12:13 PM EST
Back to Local

KLFI, Langley Air Force Base

Location: Hampton, VA, United States Lat: 37.083
Local Time: 12:13 PM EST (17:13 GMT) Lon: -76.35
Time Zone: US/Eastern Elev: 9 ft

Show me the last for .
Show Coded

Time T Td Feel RH Dir Speed Gust Alt SLP Vis Weather Sky Remarks
2018-02-22 10:56 69 65 - 85 220° 12 - 30.46 30.48 9 OVC015 None
2018-02-22 09:56 68 65 - 91 230° 8 - 30.46 30.48 10 OVC011 None
2018-02-22 09:26 66 66 - 100 220° 12 - 30.46 30.48 9 OVC010 None
2018-02-22 09:11 66 66 - 100 230° 12 - 30.45 30.47 9 OVC009 None
2018-02-22 08:56 65 65 - 100 220° 12 - 30.45 30.47 8 OVC006 None
2018-02-22 08:41 64 64 - 100 210° 9 - 30.45 30.47 7 OVC005 None
2018-02-22 08:26 64 64 - 100 210° 12 - 30.45 30.47 5 BR OVC004 None
2018-02-22 07:56 64 64 - 100 210° 10 - 30.45 30.47 2 BR OVC004 Variable visibility
2018-02-22 07:53 64 64 - 100 200° 13 - 30.45 30.47 3 BR OVC004 None
2018-02-22 07:38 64 64 - 100 210° 10 - 30.44 30.46 4 BR OVC005 None
2018-02-22 07:23 64 64 - 100 210° 12 - 30.44 30.46 5 BR BKN006 None
2018-02-22 07:08 63 63 - 100 210° 10 - 30.44 30.46 7 FEW006 FEW046 None
2018-02-22 06:56 64 64 - 100 210° 9 - 30.43 30.45 7 FEW045 6-hr Min Temp (7am): 62.8°F
6-hr Max Temp (7am): 65.5°F
2018-02-22 05:56 63 63 - 100 210° 9 - 30.42 30.44 8 BKN044 None
2018-02-22 04:56 63 63 - 100 210° 10 - 30.42 30.44 9 CLR None
2018-02-22 03:56 64 64 - 100 230° 10 - 30.41 30.43 10 CLR None
2018-02-22 02:56 64 63 - 96 220° 12 - 30.42 30.44 10 CLR None
2018-02-22 01:56 65 63 - 93 210° 12 - 30.41 30.43 10 CLR None
2018-02-22 00:56 65 62 - 90 210° 9 - 30.41 30.43 10 CLR 6-hr Min Temp (1am): 62.8°F
6-hr Max Temp (1am): 66.7°F
2018-02-21 23:56 65 62 - 88 190° 9 - 30.41 30.43 10 CLR 24-hr Min Temp (12am): 62.8°F
24-hr Max Temp (12am): 75.2°F
2018-02-21 22:56 64 61 - 89 180° 6 - 30.41 30.43 10 CLR None
2018-02-21 21:56 65 62 - 87 200° 7 - 30.40 30.42 10 CLR None
2018-02-21 20:56 65 62 - 88 190° 8 - 30.39 30.41 10 CLR None
2018-02-21 19:56 63 61 - 92 - Calm - 30.39 30.41 10 CLR None
2018-02-21 18:56 67 62 - 82 - Calm - 30.39 30.41 10 CLR 6-hr Min Temp (7pm): 67.1°F
6-hr Max Temp (7pm): 75.2°F
2018-02-21 17:56 72 63 76 72 210° 8 - 30.37 30.39 10 CLR None
2018-02-21 16:56 74 63 77 67 220° 14 24 30.38 30.40 10 CLR None
2018-02-21 15:56 75 64 78 69 230° 13 - 30.37 30.39 10 SCT037 None
2018-02-21 14:56 74 64 77 73 240° 13 22 30.38 30.40 10 BKN035 None
2018-02-21 13:56 74 64 77 70 220° 16 - 30.39 30.41 9 SCT028 BKN035 None
2018-02-21 12:56 72 65 76 76 240° 15 - 30.42 30.44 9 FEW021 FEW028 BKN034 6-hr Min Temp (1pm): 65.1°F
6-hr Max Temp (1pm): 72.3°F
2018-02-21 12:26 72 64 76 78 220° 15 - 30.43 30.45 9 SCT020 BKN026 BKN032 None

Support USWX by starting your Amazon purchase here.